This is the latest recevied weather packets stored in our database for station/object EA5LU-10. If no packets are shown the sender has not sent any weather packets the latest 10 day(s).
| Time | Temp. | Humidity | Pressure | Rain* | Wind** | Luminosity | Snow |
|---|---|---|---|---|---|---|---|
| 1777925372 | 22.22° C | 61% | 1002.1 hPa | - | - | - | - |
| 1777924471 | 22.78° C | 60% | 1002.1 hPa | - | - | - | - |
| 1777923570 | 23.33° C | 60% | 1001.9 hPa | - | - | - | - |
| 1777922669 | 22.78° C | 60% | 1001.7 hPa | - | - | - | - |
| 1777921769 | 23.33° C | 59% | 1001.4 hPa | - | - | - | - |
| 1777920868 | 23.89° C | 58% | 1001.3 hPa | - | - | - | - |
| 1777919967 | 25° C | 56% | 1001.3 hPa | - | - | - | - |
| 1777919066 | 27.22° C | 49% | 1001.4 hPa | - | - | - | - |
| 1777918165 | 27.22° C | 49% | 1001.4 hPa | - | - | - | - |
| 1777917264 | 27.78° C | 48% | 1001.3 hPa | - | - | - | - |
| 1777916364 | 29.44° C | 44% | 1001.3 hPa | - | - | - | - |
| 1777915463 | 30° C | 43% | 1001.4 hPa | - | - | - | - |
| 1777914562 | 30.56° C | 43% | 1001.3 hPa | - | - | - | - |
| 1777913661 | 30° C | 45% | 1001.4 hPa | - | - | - | - |
| 1777912760 | 30.56° C | 43% | 1001.5 hPa | - | - | - | - |
| 1777911860 | 30° C | 43% | 1001.5 hPa | - | - | - | - |
| 1777910959 | 31.11° C | 42% | 1001.6 hPa | - | - | - | - |
| 1777910058 | 31.67° C | 40% | 1001.6 hPa | - | - | - | - |
| 1777909157 | 32.22° C | 39% | 1001.6 hPa | - | - | - | - |
| 1777908256 | 31.11° C | 40% | 1001.6 hPa | - | - | - | - |
| 1777907355 | 31.11° C | 40% | 1001.6 hPa | - | - | - | - |
| 1777906454 | 30.56° C | 42% | 1001.6 hPa | - | - | - | - |
| 1777905553 | 31.11° C | 38% | 1001.7 hPa | - | - | - | - |
| 1777904653 | 31.67° C | 36% | 1001.8 hPa | - | - | - | - |
| 1777903752 | 30° C | 39% | 1002 hPa | - | - | - | - |
* Rain since midnight (hover to see other rain measurements)
** Current wind speed in m/s (hover to see current wind gust speed)